sensor_id;sensor_type;location;lat;lon;timestamp;temperature;humidity
29547;DHT22;40782;47.264;11.330;2022-09-09T00:00:26;15.20;99.90
29547;DHT22;40782;47.264;11.330;2022-09-09T00:03:03;15.20;99.90
29547;DHT22;40782;47.264;11.330;2022-09-09T00:05:43;15.20;99.90
29547;DHT22;40782;47.264;11.330;2022-09-09T00:08:16;15.20;99.90
29547;DHT22;40782;47.264;11.330;2022-09-09T00:10:49;15.20;99.90
29547;DHT22;40782;47.264;11.330;2022-09-09T00:13:22;15.20;99.90
29547;DHT22;40782;47.264;11.330;2022-09-09T00:15:57;15.20;99.90
29547;DHT22;40782;47.264;11.330;2022-09-09T00:18:31;15.30;1.00
29547;DHT22;40782;47.264;11.330;2022-09-09T00:21:05;15.30;1.00
29547;DHT22;40782;47.264;11.330;2022-09-09T00:23:35;15.30;1.00
29547;DHT22;40782;47.264;11.330;2022-09-09T00:26:08;15.30;99.90
29547;DHT22;40782;47.264;11.330;2022-09-09T00:28:41;15.30;99.90
29547;DHT22;40782;47.264;11.330;2022-09-09T00:31:13;15.30;1.00
29547;DHT22;40782;47.264;11.330;2022-09-09T00:33:41;15.30;1.00
29547;DHT22;40782;47.264;11.330;2022-09-09T00:36:13;15.30;99.90
29547;DHT22;40782;47.264;11.330;2022-09-09T00:38:45;15.30;99.90
29547;DHT22;40782;47.264;11.330;2022-09-09T00:41:20;15.20;99.90
29547;DHT22;40782;47.264;11.330;2022-09-09T00:43:56;15.30;1.00
29547;DHT22;40782;47.264;11.330;2022-09-09T00:46:56;15.30;1.00
29547;DHT22;40782;47.264;11.330;2022-09-09T00:49:36;15.30;99.90
29547;DHT22;40782;47.264;11.330;2022-09-09T00:52:18;15.20;99.90
29547;DHT22;40782;47.264;11.330;2022-09-09T00:54:57;15.20;99.90
29547;DHT22;40782;47.264;11.330;2022-09-09T00:57:30;15.10;1.00
29547;DHT22;40782;47.264;11.330;2022-09-09T01:00:17;15.10;99.90
29547;DHT22;40782;47.264;11.330;2022-09-09T01:02:53;15.00;99.90
29547;DHT22;40782;47.264;11.330;2022-09-09T01:05:27;15.00;99.90
29547;DHT22;40782;47.264;11.330;2022-09-09T01:08:01;15.00;1.00
29547;DHT22;40782;47.264;11.330;2022-09-09T01:10:36;15.10;1.00
29547;DHT22;40782;47.264;11.330;2022-09-09T01:13:13;15.10;1.00
29547;DHT22;40782;47.264;11.330;2022-09-09T01:15:44;15.10;1.00
29547;DHT22;40782;47.264;11.330;2022-09-09T01:18:15;15.10;1.00
29547;DHT22;40782;47.264;11.330;2022-09-09T01:20:49;15.10;1.00
29547;DHT22;40782;47.264;11.330;2022-09-09T01:23:41;15.20;99.90
29547;DHT22;40782;47.264;11.330;2022-09-09T01:26:21;15.20;1.00
29547;DHT22;40782;47.264;11.330;2022-09-09T01:28:51;15.20;1.00
29547;DHT22;40782;47.264;11.330;2022-09-09T01:31:23;15.20;99.90
29547;DHT22;40782;47.264;11.330;2022-09-09T01:33:53;15.20;99.90
29547;DHT22;40782;47.264;11.330;2022-09-09T01:36:26;15.30;99.90
29547;DHT22;40782;47.264;11.330;2022-09-09T01:38:57;15.30;1.00
29547;DHT22;40782;47.264;11.330;2022-09-09T01:41:26;15.30;1.00
29547;DHT22;40782;47.264;11.330;2022-09-09T01:43:54;15.30;1.00
29547;DHT22;40782;47.264;11.330;2022-09-09T01:46:22;15.30;1.00
29547;DHT22;40782;47.264;11.330;2022-09-09T01:48:50;15.30;1.00
29547;DHT22;40782;47.264;11.330;2022-09-09T01:51:18;15.30;1.00
29547;DHT22;40782;47.264;11.330;2022-09-09T01:53:46;15.20;1.00
29547;DHT22;40782;47.264;11.330;2022-09-09T01:56:25;15.20;1.00
29547;DHT22;40782;47.264;11.330;2022-09-09T01:59:11;15.20;1.00
29547;DHT22;40782;47.264;11.330;2022-09-09T02:01:52;15.20;1.00
29547;DHT22;40782;47.264;11.330;2022-09-09T02:04:31;15.20;1.00
29547;DHT22;40782;47.264;11.330;2022-09-09T02:07:01;15.20;1.00
29547;DHT22;40782;47.264;11.330;2022-09-09T02:09:30;15.20;1.00
29547;DHT22;40782;47.264;11.330;2022-09-09T02:12:02;15.20;1.00
29547;DHT22;40782;47.264;11.330;2022-09-09T02:14:37;15.20;1.00
29547;DHT22;40782;47.264;11.330;2022-09-09T02:17:09;15.20;1.00
29547;DHT22;40782;47.264;11.330;2022-09-09T02:19:39;15.20;1.00
29547;DHT22;40782;47.264;11.330;2022-09-09T02:22:08;15.20;76.20
29547;DHT22;40782;47.264;11.330;2022-09-09T02:24:38;15.20;1.00
29547;DHT22;40782;47.264;11.330;2022-09-09T02:27:08;15.20;1.00
29547;DHT22;40782;47.264;11.330;2022-09-09T02:29:40;15.20;1.00
29547;DHT22;40782;47.264;11.330;2022-09-09T02:32:08;15.20;1.00
29547;DHT22;40782;47.264;11.330;2022-09-09T02:34:42;15.20;1.00
29547;DHT22;40782;47.264;11.330;2022-09-09T02:37:10;15.20;1.00
29547;DHT22;40782;47.264;11.330;2022-09-09T02:39:38;15.20;99.90
29547;DHT22;40782;47.264;11.330;2022-09-09T02:42:05;15.20;99.90
29547;DHT22;40782;47.264;11.330;2022-09-09T02:44:34;15.10;99.90
29547;DHT22;40782;47.264;11.330;2022-09-09T02:47:20;15.10;99.90
29547;DHT22;40782;47.264;11.330;2022-09-09T02:50:00;15.10;1.00
29547;DHT22;40782;47.264;11.330;2022-09-09T02:52:33;15.20;1.00
29547;DHT22;40782;47.264;11.330;2022-09-09T02:55:08;15.20;1.00
29547;DHT22;40782;47.264;11.330;2022-09-09T02:57:39;15.20;1.00
29547;DHT22;40782;47.264;11.330;2022-09-09T03:00:08;15.20;1.00
29547;DHT22;40782;47.264;11.330;2022-09-09T03:02:36;15.20;1.00
29547;DHT22;40782;47.264;11.330;2022-09-09T03:05:05;15.10;1.00
29547;DHT22;40782;47.264;11.330;2022-09-09T03:07:32;15.10;1.00
29547;DHT22;40782;47.264;11.330;2022-09-09T03:10:00;15.20;1.00
29547;DHT22;40782;47.264;11.330;2022-09-09T03:12:28;15.20;1.00
29547;DHT22;40782;47.264;11.330;2022-09-09T03:14:55;15.20;1.00
29547;DHT22;40782;47.264;11.330;2022-09-09T03:17:22;15.20;1.00
29547;DHT22;40782;47.264;11.330;2022-09-09T03:19:51;15.20;1.00
29547;DHT22;40782;47.264;11.330;2022-09-09T03:22:20;15.20;1.00
29547;DHT22;40782;47.264;11.330;2022-09-09T03:24:47;15.20;1.00
29547;DHT22;40782;47.264;11.330;2022-09-09T03:27:14;15.30;1.00
29547;DHT22;40782;47.264;11.330;2022-09-09T03:29:41;15.30;1.00
29547;DHT22;40782;47.264;11.330;2022-09-09T03:32:08;15.30;99.90
29547;DHT22;40782;47.264;11.330;2022-09-09T03:34:36;15.30;1.00
29547;DHT22;40782;47.264;11.330;2022-09-09T03:37:06;15.30;1.00
29547;DHT22;40782;47.264;11.330;2022-09-09T03:39:33;15.30;1.00
29547;DHT22;40782;47.264;11.330;2022-09-09T03:42:01;15.30;1.00
29547;DHT22;40782;47.264;11.330;2022-09-09T03:44:29;15.30;1.00
29547;DHT22;40782;47.264;11.330;2022-09-09T03:46:56;15.30;1.00
29547;DHT22;40782;47.264;11.330;2022-09-09T03:49:26;15.30;1.00
29547;DHT22;40782;47.264;11.330;2022-09-09T03:51:54;15.30;1.00
29547;DHT22;40782;47.264;11.330;2022-09-09T03:54:23;15.30;1.00
29547;DHT22;40782;47.264;11.330;2022-09-09T03:56:51;15.30;1.00
29547;DHT22;40782;47.264;11.330;2022-09-09T03:59:18;15.30;99.90
29547;DHT22;40782;47.264;11.330;2022-09-09T04:01:46;15.30;99.90
29547;DHT22;40782;47.264;11.330;2022-09-09T04:04:13;15.30;99.90
29547;DHT22;40782;47.264;11.330;2022-09-09T04:06:40;15.30;99.90
29547;DHT22;40782;47.264;11.330;2022-09-09T04:09:07;15.20;1.00
29547;DHT22;40782;47.264;11.330;2022-09-09T04:11:36;15.20;1.00
29547;DHT22;40782;47.264;11.330;2022-09-09T04:14:03;15.20;1.00
29547;DHT22;40782;47.264;11.330;2022-09-09T04:16:31;15.20;1.00
29547;DHT22;40782;47.264;11.330;2022-09-09T04:18:59;15.10;1.00
29547;DHT22;40782;47.264;11.330;2022-09-09T04:21:27;15.10;1.00
29547;DHT22;40782;47.264;11.330;2022-09-09T04:23:54;15.00;99.90
29547;DHT22;40782;47.264;11.330;2022-09-09T04:26:22;15.00;1.00
29547;DHT22;40782;47.264;11.330;2022-09-09T04:28:50;14.90;99.90
29547;DHT22;40782;47.264;11.330;2022-09-09T04:31:19;14.90;99.90
29547;DHT22;40782;47.264;11.330;2022-09-09T04:33:48;14.90;1.00
29547;DHT22;40782;47.264;11.330;2022-09-09T04:36:16;14.80;1.00
29547;DHT22;40782;47.264;11.330;2022-09-09T04:38:46;14.60;1.00
29547;DHT22;40782;47.264;11.330;2022-09-09T04:41:14;14.60;1.00
29547;DHT22;40782;47.264;11.330;2022-09-09T04:43:42;14.50;1.00
29547;DHT22;40782;47.264;11.330;2022-09-09T04:46:10;14.50;1.00
29547;DHT22;40782;47.264;11.330;2022-09-09T04:48:37;14.40;1.00
29547;DHT22;40782;47.264;11.330;2022-09-09T04:51:06;14.40;1.00
29547;DHT22;40782;47.264;11.330;2022-09-09T04:53:34;14.30;1.00
29547;DHT22;40782;47.264;11.330;2022-09-09T04:56:03;14.30;1.00
29547;DHT22;40782;47.264;11.330;2022-09-09T04:58:31;14.30;3.80
29547;DHT22;40782;47.264;11.330;2022-09-09T05:01:07;14.30;13.80
29547;DHT22;40782;47.264;11.330;2022-09-09T05:03:36;14.30;21.90
29547;DHT22;40782;47.264;11.330;2022-09-09T05:06:05;14.20;26.50
29547;DHT22;40782;47.264;11.330;2022-09-09T05:08:34;14.20;30.30
29547;DHT22;40782;47.264;11.330;2022-09-09T05:11:01;14.20;34.40
29547;DHT22;40782;47.264;11.330;2022-09-09T05:13:29;14.20;37.70
29547;DHT22;40782;47.264;11.330;2022-09-09T05:15:57;14.20;42.90
29547;DHT22;40782;47.264;11.330;2022-09-09T05:18:24;14.20;46.70
29547;DHT22;40782;47.264;11.330;2022-09-09T05:20:52;14.20;46.20
29547;DHT22;40782;47.264;11.330;2022-09-09T05:23:25;14.10;46.50
29547;DHT22;40782;47.264;11.330;2022-09-09T05:25:57;14.20;49.70
29547;DHT22;40782;47.264;11.330;2022-09-09T05:28:24;14.20;53.40
29547;DHT22;40782;47.264;11.330;2022-09-09T05:30:56;14.20;58.00
29547;DHT22;40782;47.264;11.330;2022-09-09T05:33:24;14.20;61.60
29547;DHT22;40782;47.264;11.330;2022-09-09T05:35:57;14.30;64.50
29547;DHT22;40782;47.264;11.330;2022-09-09T05:38:25;14.30;66.40
29547;DHT22;40782;47.264;11.330;2022-09-09T05:40:52;14.30;67.20
29547;DHT22;40782;47.264;11.330;2022-09-09T05:43:20;14.20;66.80
29547;DHT22;40782;47.264;11.330;2022-09-09T05:45:47;14.20;66.70
29547;DHT22;40782;47.264;11.330;2022-09-09T05:48:14;14.20;69.10
29547;DHT22;40782;47.264;11.330;2022-09-09T05:50:42;14.20;70.20
29547;DHT22;40782;47.264;11.330;2022-09-09T05:53:12;14.20;71.60
29547;DHT22;40782;47.264;11.330;2022-09-09T05:55:39;14.30;73.70
29547;DHT22;40782;47.264;11.330;2022-09-09T05:58:06;14.30;76.40
29547;DHT22;40782;47.264;11.330;2022-09-09T06:00:33;14.40;78.10
29547;DHT22;40782;47.264;11.330;2022-09-09T06:03:00;14.40;80.00
29547;DHT22;40782;47.264;11.330;2022-09-09T06:05:28;14.50;81.50
29547;DHT22;40782;47.264;11.330;2022-09-09T06:07:56;14.50;83.00
29547;DHT22;40782;47.264;11.330;2022-09-09T06:10:24;14.60;84.20
29547;DHT22;40782;47.264;11.330;2022-09-09T06:12:53;14.60;85.00
29547;DHT22;40782;47.264;11.330;2022-09-09T06:15:20;14.60;85.60
29547;DHT22;40782;47.264;11.330;2022-09-09T06:17:47;14.60;86.00
29547;DHT22;40782;47.264;11.330;2022-09-09T06:20:20;14.70;86.90
29547;DHT22;40782;47.264;11.330;2022-09-09T06:22:47;14.70;87.90
29547;DHT22;40782;47.264;11.330;2022-09-09T06:25:15;14.80;89.10
29547;DHT22;40782;47.264;11.330;2022-09-09T06:27:49;14.90;90.00
29547;DHT22;40782;47.264;11.330;2022-09-09T06:30:16;14.90;90.20
29547;DHT22;40782;47.264;11.330;2022-09-09T06:32:44;14.90;89.90
29547;DHT22;40782;47.264;11.330;2022-09-09T06:35:11;14.90;89.20
29547;DHT22;40782;47.264;11.330;2022-09-09T06:37:39;14.90;88.60
29547;DHT22;40782;47.264;11.330;2022-09-09T06:40:07;15.00;86.80
29547;DHT22;40782;47.264;11.330;2022-09-09T06:42:34;15.00;85.20
29547;DHT22;40782;47.264;11.330;2022-09-09T06:45:03;15.00;84.80
29547;DHT22;40782;47.264;11.330;2022-09-09T06:47:33;15.10;85.10
29547;DHT22;40782;47.264;11.330;2022-09-09T06:50:00;15.10;85.90
29547;DHT22;40782;47.264;11.330;2022-09-09T06:52:27;15.20;87.30
29547;DHT22;40782;47.264;11.330;2022-09-09T06:54:54;15.20;89.00
29547;DHT22;40782;47.264;11.330;2022-09-09T06:57:24;15.30;89.40
29547;DHT22;40782;47.264;11.330;2022-09-09T06:59:51;15.30;84.70
29547;DHT22;40782;47.264;11.330;2022-09-09T07:02:19;15.30;78.50
29547;DHT22;40782;47.264;11.330;2022-09-09T07:04:47;15.30;67.70
29547;DHT22;40782;47.264;11.330;2022-09-09T07:07:17;15.30;59.60
29547;DHT22;40782;47.264;11.330;2022-09-09T07:09:44;15.30;59.70
29547;DHT22;40782;47.264;11.330;2022-09-09T07:12:12;15.30;64.40
29547;DHT22;40782;47.264;11.330;2022-09-09T07:14:39;15.40;69.20
29547;DHT22;40782;47.264;11.330;2022-09-09T07:17:07;15.40;68.90
29547;DHT22;40782;47.264;11.330;2022-09-09T07:19:35;15.50;71.30
29547;DHT22;40782;47.264;11.330;2022-09-09T07:22:02;15.50;71.00
29547;DHT22;40782;47.264;11.330;2022-09-09T07:24:32;15.50;69.70
29547;DHT22;40782;47.264;11.330;2022-09-09T07:26:59;15.50;69.50
29547;DHT22;40782;47.264;11.330;2022-09-09T07:29:26;15.50;57.10
29547;DHT22;40782;47.264;11.330;2022-09-09T07:31:53;15.50;45.30
29547;DHT22;40782;47.264;11.330;2022-09-09T07:34:20;15.50;38.20
29547;DHT22;40782;47.264;11.330;2022-09-09T07:36:48;15.50;37.10
29547;DHT22;40782;47.264;11.330;2022-09-09T07:39:16;15.50;40.10
29547;DHT22;40782;47.264;11.330;2022-09-09T07:41:44;15.60;43.90
29547;DHT22;40782;47.264;11.330;2022-09-09T07:44:14;15.60;44.70
29547;DHT22;40782;47.264;11.330;2022-09-09T07:46:42;15.60;46.00
29547;DHT22;40782;47.264;11.330;2022-09-09T07:49:11;15.60;31.80
29547;DHT22;40782;47.264;11.330;2022-09-09T07:51:39;15.60;28.80
29547;DHT22;40782;47.264;11.330;2022-09-09T07:54:11;15.60;13.50
29547;DHT22;40782;47.264;11.330;2022-09-09T07:56:39;15.50;1.00
29547;DHT22;40782;47.264;11.330;2022-09-09T07:59:06;15.40;1.00
29547;DHT22;40782;47.264;11.330;2022-09-09T08:01:35;15.40;1.00
29547;DHT22;40782;47.264;11.330;2022-09-09T08:04:06;15.30;1.00
29547;DHT22;40782;47.264;11.330;2022-09-09T08:06:36;15.30;1.00
29547;DHT22;40782;47.264;11.330;2022-09-09T08:09:04;15.40;1.00
29547;DHT22;40782;47.264;11.330;2022-09-09T08:11:34;15.40;1.00
29547;DHT22;40782;47.264;11.330;2022-09-09T08:14:02;15.50;1.00
29547;DHT22;40782;47.264;11.330;2022-09-09T08:16:31;15.50;1.00
29547;DHT22;40782;47.264;11.330;2022-09-09T08:19:03;15.50;1.00
29547;DHT22;40782;47.264;11.330;2022-09-09T08:21:32;15.60;1.00
29547;DHT22;40782;47.264;11.330;2022-09-09T08:24:00;15.60;1.00
29547;DHT22;40782;47.264;11.330;2022-09-09T08:26:30;15.70;1.00
29547;DHT22;40782;47.264;11.330;2022-09-09T08:29:02;15.60;1.00
29547;DHT22;40782;47.264;11.330;2022-09-09T08:31:32;15.60;1.00
29547;DHT22;40782;47.264;11.330;2022-09-09T08:34:04;15.60;1.00
29547;DHT22;40782;47.264;11.330;2022-09-09T08:36:35;15.60;1.00
29547;DHT22;40782;47.264;11.330;2022-09-09T08:39:05;15.70;1.00
29547;DHT22;40782;47.264;11.330;2022-09-09T08:41:43;15.80;1.00
29547;DHT22;40782;47.264;11.330;2022-09-09T08:44:26;15.80;1.00
29547;DHT22;40782;47.264;11.330;2022-09-09T08:47:15;15.90;1.00
29547;DHT22;40782;47.264;11.330;2022-09-09T08:50:00;16.00;1.00
29547;DHT22;40782;47.264;11.330;2022-09-09T08:52:30;16.00;1.00
29547;DHT22;40782;47.264;11.330;2022-09-09T08:55:02;15.90;1.00
29547;DHT22;40782;47.264;11.330;2022-09-09T08:57:32;15.90;1.00
29547;DHT22;40782;47.264;11.330;2022-09-09T09:00:03;16.00;1.00
29547;DHT22;40782;47.264;11.330;2022-09-09T09:02:38;16.00;1.00
29547;DHT22;40782;47.264;11.330;2022-09-09T09:05:17;16.00;1.00
29547;DHT22;40782;47.264;11.330;2022-09-09T09:07:55;16.00;1.00
29547;DHT22;40782;47.264;11.330;2022-09-09T09:10:39;16.10;1.00
29547;DHT22;40782;47.264;11.330;2022-09-09T09:13:14;16.10;1.00
29547;DHT22;40782;47.264;11.330;2022-09-09T09:15:44;16.20;1.00
29547;DHT22;40782;47.264;11.330;2022-09-09T09:18:13;16.20;1.00
29547;DHT22;40782;47.264;11.330;2022-09-09T09:20:49;16.30;1.00
29547;DHT22;40782;47.264;11.330;2022-09-09T09:23:22;16.30;1.00
29547;DHT22;40782;47.264;11.330;2022-09-09T09:25:51;16.40;1.00
29547;DHT22;40782;47.264;11.330;2022-09-09T09:28:23;16.50;1.00
29547;DHT22;40782;47.264;11.330;2022-09-09T09:30:55;16.50;1.00
29547;DHT22;40782;47.264;11.330;2022-09-09T09:33:28;16.50;62.90
29547;DHT22;40782;47.264;11.330;2022-09-09T09:35:57;16.50;1.00
29547;DHT22;40782;47.264;11.330;2022-09-09T09:38:27;16.50;6.60
29547;DHT22;40782;47.264;11.330;2022-09-09T09:40:55;16.50;1.00
29547;DHT22;40782;47.264;11.330;2022-09-09T09:43:27;16.40;1.00
29547;DHT22;40782;47.264;11.330;2022-09-09T09:45:56;16.40;99.90
29547;DHT22;40782;47.264;11.330;2022-09-09T09:48:25;16.40;1.00
29547;DHT22;40782;47.264;11.330;2022-09-09T09:50:54;16.40;99.90
29547;DHT22;40782;47.264;11.330;2022-09-09T09:53:25;16.40;1.00
29547;DHT22;40782;47.264;11.330;2022-09-09T09:55:58;16.40;99.90
29547;DHT22;40782;47.264;11.330;2022-09-09T09:58:27;16.50;99.90
29547;DHT22;40782;47.264;11.330;2022-09-09T10:01:01;16.50;99.90
29547;DHT22;40782;47.264;11.330;2022-09-09T10:03:37;16.60;1.00
29547;DHT22;40782;47.264;11.330;2022-09-09T10:06:07;16.70;99.90
29547;DHT22;40782;47.264;11.330;2022-09-09T10:08:45;16.80;21.90
29547;DHT22;40782;47.264;11.330;2022-09-09T10:11:28;16.90;99.90
29547;DHT22;40782;47.264;11.330;2022-09-09T10:14:02;17.00;1.00
29547;DHT22;40782;47.264;11.330;2022-09-09T10:16:45;17.00;99.90
29547;DHT22;40782;47.264;11.330;2022-09-09T10:19:16;17.10;99.90
29547;DHT22;40782;47.264;11.330;2022-09-09T10:22:12;17.20;1.00
29547;DHT22;40782;47.264;11.330;2022-09-09T10:27:50;17.40;80.70
29547;DHT22;40782;47.264;11.330;2022-09-09T10:30:21;17.40;1.00
29547;DHT22;40782;47.264;11.330;2022-09-09T10:32:56;17.50;1.00
29547;DHT22;40782;47.264;11.330;2022-09-09T10:35:30;17.60;1.00
29547;DHT22;40782;47.264;11.330;2022-09-09T10:38:11;17.70;1.00
29547;DHT22;40782;47.264;11.330;2022-09-09T10:40:43;17.70;99.90
29547;DHT22;40782;47.264;11.330;2022-09-09T10:43:20;17.80;1.00
29547;DHT22;40782;47.264;11.330;2022-09-09T10:45:59;17.80;1.00
29547;DHT22;40782;47.264;11.330;2022-09-09T10:48:41;17.80;55.00
29547;DHT22;40782;47.264;11.330;2022-09-09T10:51:23;17.80;1.00
29547;DHT22;40782;47.264;11.330;2022-09-09T10:54:04;17.90;99.90
29547;DHT22;40782;47.264;11.330;2022-09-09T10:56:38;17.90;99.90
29547;DHT22;40782;47.264;11.330;2022-09-09T10:59:11;18.00;99.90
29547;DHT22;40782;47.264;11.330;2022-09-09T11:01:43;18.20;99.90
29547;DHT22;40782;47.264;11.330;2022-09-09T11:04:17;18.40;1.00
29547;DHT22;40782;47.264;11.330;2022-09-09T11:06:49;18.60;1.00
29547;DHT22;40782;47.264;11.330;2022-09-09T11:09:21;18.70;1.00
29547;DHT22;40782;47.264;11.330;2022-09-09T11:11:52;18.80;1.00
29547;DHT22;40782;47.264;11.330;2022-09-09T11:14:26;18.90;1.00
29547;DHT22;40782;47.264;11.330;2022-09-09T11:16:58;19.00;1.00
29547;DHT22;40782;47.264;11.330;2022-09-09T11:19:30;19.00;1.00
29547;DHT22;40782;47.264;11.330;2022-09-09T11:22:01;19.10;99.90
29547;DHT22;40782;47.264;11.330;2022-09-09T11:24:35;19.10;11.90
29547;DHT22;40782;47.264;11.330;2022-09-09T11:27:09;19.00;1.00
29547;DHT22;40782;47.264;11.330;2022-09-09T11:36:06;19.20;99.90
29547;DHT22;40782;47.264;11.330;2022-09-09T11:38:41;19.40;88.60
29547;DHT22;40782;47.264;11.330;2022-09-09T11:41:12;19.50;88.60
29547;DHT22;40782;47.264;11.330;2022-09-09T11:43:41;19.70;1.00
29547;DHT22;40782;47.264;11.330;2022-09-09T11:46:10;19.80;1.00
29547;DHT22;40782;47.264;11.330;2022-09-09T11:48:40;19.90;1.00
29547;DHT22;40782;47.264;11.330;2022-09-09T11:51:24;20.10;1.00
29547;DHT22;40782;47.264;11.330;2022-09-09T11:53:54;20.30;1.00
29547;DHT22;40782;47.264;11.330;2022-09-09T11:56:27;20.50;1.00
29547;DHT22;40782;47.264;11.330;2022-09-09T11:59:00;20.50;1.00
29547;DHT22;40782;47.264;11.330;2022-09-09T12:01:39;20.60;1.00
29547;DHT22;40782;47.264;11.330;2022-09-09T12:04:35;20.70;1.00
29547;DHT22;40782;47.264;11.330;2022-09-09T12:07:28;20.90;1.00
29547;DHT22;40782;47.264;11.330;2022-09-09T12:09:59;21.20;1.00
29547;DHT22;40782;47.264;11.330;2022-09-09T12:12:30;21.60;1.00
29547;DHT22;40782;47.264;11.330;2022-09-09T12:15:22;22.00;1.00
29547;DHT22;40782;47.264;11.330;2022-09-09T12:17:52;22.60;1.00
29547;DHT22;40782;47.264;11.330;2022-09-09T12:20:22;23.10;1.00
29547;DHT22;40782;47.264;11.330;2022-09-09T12:23:27;23.20;1.00
29547;DHT22;40782;47.264;11.330;2022-09-09T12:26:04;23.20;1.00
29547;DHT22;40782;47.264;11.330;2022-09-09T12:28:52;23.30;1.00
29547;DHT22;40782;47.264;11.330;2022-09-09T12:31:25;23.40;1.00
29547;DHT22;40782;47.264;11.330;2022-09-09T12:33:54;23.50;1.00
29547;DHT22;40782;47.264;11.330;2022-09-09T12:36:27;23.60;1.00
29547;DHT22;40782;47.264;11.330;2022-09-09T12:38:59;23.90;99.90
29547;DHT22;40782;47.264;11.330;2022-09-09T12:41:36;24.20;99.90
29547;DHT22;40782;47.264;11.330;2022-09-09T12:44:04;24.50;99.90
29547;DHT22;40782;47.264;11.330;2022-09-09T12:46:38;24.40;99.90
29547;DHT22;40782;47.264;11.330;2022-09-09T12:49:25;24.10;99.90
29547;DHT22;40782;47.264;11.330;2022-09-09T12:51:53;23.90;99.90
29547;DHT22;40782;47.264;11.330;2022-09-09T12:54:24;23.90;99.90
29547;DHT22;40782;47.264;11.330;2022-09-09T12:56:51;23.80;99.90
29547;DHT22;40782;47.264;11.330;2022-09-09T12:59:23;23.50;99.90
29547;DHT22;40782;47.264;11.330;2022-09-09T13:01:57;23.10;99.90
29547;DHT22;40782;47.264;11.330;2022-09-09T13:04:25;22.80;99.90
29547;DHT22;40782;47.264;11.330;2022-09-09T13:06:53;22.50;99.90
29547;DHT22;40782;47.264;11.330;2022-09-09T13:09:21;22.20;99.90
29547;DHT22;40782;47.264;11.330;2022-09-09T13:11:52;21.90;99.90
29547;DHT22;40782;47.264;11.330;2022-09-09T13:14:26;21.70;99.90
29547;DHT22;40782;47.264;11.330;2022-09-09T13:16:57;21.50;99.90
29547;DHT22;40782;47.264;11.330;2022-09-09T13:19:25;21.30;1.00
29547;DHT22;40782;47.264;11.330;2022-09-09T13:21:55;21.20;1.00
29547;DHT22;40782;47.264;11.330;2022-09-09T13:24:28;21.00;1.00
29547;DHT22;40782;47.264;11.330;2022-09-09T13:26:58;20.90;1.00
29547;DHT22;40782;47.264;11.330;2022-09-09T13:29:27;20.80;1.00
29547;DHT22;40782;47.264;11.330;2022-09-09T13:32:04;20.60;1.00
29547;DHT22;40782;47.264;11.330;2022-09-09T13:34:33;20.40;1.00
29547;DHT22;40782;47.264;11.330;2022-09-09T13:37:02;20.30;1.00
29547;DHT22;40782;47.264;11.330;2022-09-09T13:39:33;20.20;1.00
29547;DHT22;40782;47.264;11.330;2022-09-09T13:42:04;20.00;1.00
29547;DHT22;40782;47.264;11.330;2022-09-09T13:44:36;19.90;1.00
29547;DHT22;40782;47.264;11.330;2022-09-09T13:47:05;19.70;1.00
29547;DHT22;40782;47.264;11.330;2022-09-09T13:49:33;19.50;1.00
29547;DHT22;40782;47.264;11.330;2022-09-09T13:52:06;19.30;1.00
29547;DHT22;40782;47.264;11.330;2022-09-09T13:54:35;19.10;1.00
29547;DHT22;40782;47.264;11.330;2022-09-09T13:57:04;18.90;1.00
29547;DHT22;40782;47.264;11.330;2022-09-09T13:59:31;18.60;1.00
29547;DHT22;40782;47.264;11.330;2022-09-09T14:01:58;18.30;1.00
29547;DHT22;40782;47.264;11.330;2022-09-09T14:04:27;18.00;1.00
29547;DHT22;40782;47.264;11.330;2022-09-09T14:06:55;17.80;52.00
29547;DHT22;40782;47.264;11.330;2022-09-09T14:09:22;17.50;99.90
29547;DHT22;40782;47.264;11.330;2022-09-09T14:11:49;17.10;1.00
29547;DHT22;40782;47.264;11.330;2022-09-09T14:14:18;16.90;4.40
29547;DHT22;40782;47.264;11.330;2022-09-09T14:16:46;16.70;99.90
29547;DHT22;40782;47.264;11.330;2022-09-09T14:19:13;16.50;1.00
29547;DHT22;40782;47.264;11.330;2022-09-09T14:21:40;16.40;1.00
29547;DHT22;40782;47.264;11.330;2022-09-09T14:24:08;16.30;1.00
29547;DHT22;40782;47.264;11.330;2022-09-09T14:26:35;16.30;99.90
29547;DHT22;40782;47.264;11.330;2022-09-09T14:29:02;16.30;99.90
29547;DHT22;40782;47.264;11.330;2022-09-09T14:31:31;16.20;1.00
29547;DHT22;40782;47.264;11.330;2022-09-09T14:33:58;16.20;1.00
29547;DHT22;40782;47.264;11.330;2022-09-09T14:36:25;16.20;1.00
29547;DHT22;40782;47.264;11.330;2022-09-09T14:38:53;16.30;99.90
29547;DHT22;40782;47.264;11.330;2022-09-09T14:41:20;16.30;80.40
29547;DHT22;40782;47.264;11.330;2022-09-09T14:43:48;16.30;1.00
29547;DHT22;40782;47.264;11.330;2022-09-09T14:46:18;16.30;1.00
29547;DHT22;40782;47.264;11.330;2022-09-09T14:48:47;16.30;99.90
29547;DHT22;40782;47.264;11.330;2022-09-09T14:51:17;16.30;1.00
29547;DHT22;40782;47.264;11.330;2022-09-09T14:53:46;16.40;1.00
29547;DHT22;40782;47.264;11.330;2022-09-09T14:56:16;16.40;99.90
29547;DHT22;40782;47.264;11.330;2022-09-09T14:58:43;16.50;1.00
29547;DHT22;40782;47.264;11.330;2022-09-09T15:01:12;16.50;99.90
29547;DHT22;40782;47.264;11.330;2022-09-09T15:03:40;16.60;99.90
29547;DHT22;40782;47.264;11.330;2022-09-09T15:06:11;16.70;69.20
29547;DHT22;40782;47.264;11.330;2022-09-09T15:08:40;16.70;99.90
29547;DHT22;40782;47.264;11.330;2022-09-09T15:11:09;16.70;1.00
29547;DHT22;40782;47.264;11.330;2022-09-09T15:13:37;16.80;1.00
29547;DHT22;40782;47.264;11.330;2022-09-09T15:16:06;16.80;1.00
29547;DHT22;40782;47.264;11.330;2022-09-09T15:18:34;16.80;99.90
29547;DHT22;40782;47.264;11.330;2022-09-09T15:21:02;16.80;99.90
29547;DHT22;40782;47.264;11.330;2022-09-09T15:23:32;16.80;1.00
29547;DHT22;40782;47.264;11.330;2022-09-09T15:26:00;16.80;1.00
29547;DHT22;40782;47.264;11.330;2022-09-09T15:28:28;16.90;1.00
29547;DHT22;40782;47.264;11.330;2022-09-09T15:30:55;16.90;99.90
29547;DHT22;40782;47.264;11.330;2022-09-09T15:33:23;16.80;1.00
29547;DHT22;40782;47.264;11.330;2022-09-09T15:35:50;16.70;1.00
29547;DHT22;40782;47.264;11.330;2022-09-09T15:38:17;16.70;1.00
29547;DHT22;40782;47.264;11.330;2022-09-09T15:40:53;16.70;1.00
29547;DHT22;40782;47.264;11.330;2022-09-09T15:43:21;16.70;29.40
29547;DHT22;40782;47.264;11.330;2022-09-09T15:45:53;16.80;99.90
29547;DHT22;40782;47.264;11.330;2022-09-09T15:48:30;16.80;1.00
29547;DHT22;40782;47.264;11.330;2022-09-09T15:51:01;16.80;99.90
29547;DHT22;40782;47.264;11.330;2022-09-09T15:53:29;16.90;25.10
29547;DHT22;40782;47.264;11.330;2022-09-09T15:55:59;17.10;1.00
29547;DHT22;40782;47.264;11.330;2022-09-09T15:58:30;17.40;1.00